Time;durP1;ratioP1;P1;durP2;ratioP2;P2;SDS_P1;SDS_P2;PMS_P1;PMS_P2;Temp;Humidity;BMP_temperature;BMP_pressure;BME280_temperature;BME280_humidity;BME280_pressure;Samples;Min_cycle;Max_cycle;Signal;HPM_P1;HPM_P2
2021/07/03 00:03:20;;;;;;;;;;;;;;;17.09;73.29;99179.84;529528;1092;102543;-63
2021/07/03 00:13:25;;;;;;;;;;;;;;;16.89;73.45;99172.97;530126;1092;103306;-61
2021/07/03 00:23:32;;;;;;;;;;;;;;;16.82;73.87;99175.39;530118;1092;102326;-61
2021/07/03 00:33:36;;;;;;;;;;;;;;;16.74;74.27;99176.14;529528;1092;102167;-61
2021/07/03 00:43:41;;;;;;;;;;;;;;;16.75;74.35;99172.50;530154;1092;101800;-61
2021/07/03 00:53:46;;;;;;;;;;;;;;;16.69;74.60;99169.61;529500;1093;102387;-61
2021/07/03 01:03:51;;;;;;;;;;;;;;;16.61;74.92;99170.36;530147;1093;103127;-61
2021/07/03 01:13:56;;;;;;;;;;;;;;;16.55;75.05;99160.34;530093;1093;102487;-61
2021/07/03 01:24:01;;;;;;;;;;;;;;;16.49;75.18;99159.11;529471;1093;102093;-61
2021/07/03 01:34:06;;;;;;;;;;;;;;;16.40;75.46;99158.19;530176;1092;101814;-61
2021/07/03 01:44:11;;;;;;;;;;;;;;;16.27;75.48;99157.69;530166;1092;102263;-62
2021/07/03 01:54:16;;;;;;;;;;;;;;;16.31;75.94;99156.41;529505;1093;102180;-62
2021/07/03 02:04:21;;;;;;;;;;;;;;;16.36;75.64;99154.98;530129;1092;104011;-62
2021/07/03 02:14:26;;;;;;;;;;;;;;;16.38;75.49;99152.20;530134;1093;103052;-62
2021/07/03 02:24:32;;;;;;;;;;;;;;;16.25;75.63;99156.02;529597;1093;102217;-62
2021/07/03 02:34:36;;;;;;;;;;;;;;;16.25;76.20;99168.42;530161;1093;103175;-62
2021/07/03 02:44:42;;;;;;;;;;;;;;;16.25;76.16;99161.32;530128;1092;101793;-62
2021/07/03 02:54:48;;;;;;;;;;;;;;;16.06;76.29;99172.83;530150;1092;103099;-62
2021/07/03 03:04:53;;;;;;;;;;;;;;;16.04;76.16;99168.64;530120;1093;103293;-62
2021/07/03 03:14:58;;;;;;;;;;;;;;;16.03;75.94;99175.73;529530;1093;102051;-62
2021/07/03 03:25:04;;;;;;;;;;;;;;;16.02;75.68;99168.77;530218;1092;103050;-63
2021/07/03 03:35:09;;;;;;;;;;;;;;;16.08;75.43;99170.86;530185;1092;103624;-62
2021/07/03 03:45:15;;;;;;;;;;;;;;;16.22;75.25;99166.07;529556;1092;102141;-62
2021/07/03 03:55:20;;;;;;;;;;;;;;;16.39;74.75;99167.11;530198;1092;102590;-65
2021/07/03 04:05:25;;;;;;;;;;;;;;;16.52;74.60;99159.66;530223;1092;103249;-62
2021/07/03 04:15:30;;;;;;;;;;;;;;;16.62;74.28;99164.08;529467;1092;102326;-63
2021/07/03 04:25:34;;;;;;;;;;;;;;;16.79;74.24;99155.33;530125;1092;102308;-62
2021/07/03 04:35:39;;;;;;;;;;;;;;;16.90;74.08;99156.08;530146;1092;102395;-62
2021/07/03 04:45:44;;;;;;;;;;;;;;;17.01;73.87;99174.45;530198;1092;103347;-62
2021/07/03 04:55:49;;;;;;;;;;;;;;;17.20;73.27;99165.55;530159;1092;102836;-61
2021/07/03 05:05:53;;;;;;;;;;;;;;;17.17;73.08;99173.78;529525;1092;101739;-62
2021/07/03 05:15:58;;;;;;;;;;;;;;;17.35;72.88;99165.81;530172;1092;101683;-62
2021/07/03 05:26:03;;;;;;;;;;;;;;;17.59;72.15;99156.38;530190;1092;102407;-62
2021/07/03 05:36:08;;;;;;;;;;;;;;;17.93;71.81;99168.08;529562;1092;101933;-61
2021/07/03 05:46:13;;;;;;;;;;;;;;;18.33;71.05;99168.48;530154;1092;102084;-62
2021/07/03 05:56:18;;;;;;;;;;;;;;;18.83;69.91;99172.16;530210;1092;102178;-62
2021/07/03 06:06:22;;;;;;;;;;;;;;;19.09;69.50;99165.91;529508;1092;103192;-62
2021/07/03 06:16:27;;;;;;;;;;;;;;;19.43;68.14;99166.75;530086;1093;102387;-62
2021/07/03 06:26:32;;;;;;;;;;;;;;;19.75;67.23;99175.73;527142;1092;101687;-62
2021/07/03 06:36:37;;;;;;;;;;;;;;;19.92;66.01;99176.54;529511;1092;103466;-62
2021/07/03 06:46:42;;;;;;;;;;;;;;;19.51;66.16;99187.22;530160;1092;102103;-62
2021/07/03 06:56:47;;;;;;;;;;;;;;;19.31;66.68;99177.73;529531;1092;102585;-62
2021/07/03 07:06:52;;;;;;;;;;;;;;;19.08;66.76;99180.22;530210;1092;102936;-62
2021/07/03 07:16:57;;;;;;;;;;;;;;;19.20;67.07;99178.05;530131;1092;102955;-62
2021/07/03 07:27:02;;;;;;;;;;;;;;;19.18;67.39;99188.03;529493;1093;102850;-62
2021/07/03 07:37:09;;;;;;;;;;;;;;;19.30;66.78;99196.55;530186;1092;102421;-62
2021/07/03 07:47:14;;;;;;;;;;;;;;;19.61;65.43;99201.20;530125;1092;102067;-63
2021/07/03 07:57:21;;;;;;;;;;;;;;;19.62;65.32;99194.88;529506;1092;102883;-63
2021/07/03 08:07:26;;;;;;;;;;;;;;;19.33;66.48;99206.86;530142;1093;102971;-63
2021/07/03 08:17:30;;;;;;;;;;;;;;;18.95;66.62;99209.91;530138;1092;102652;-62
2021/07/03 08:27:36;;;;;;;;;;;;;;;18.87;67.31;99212.54;529531;1093;103385;-62
2021/07/03 08:37:41;;;;;;;;;;;;;;;18.42;69.53;99220.70;530221;1093;101695;-63
2021/07/03 08:47:47;;;;;;;;;;;;;;;18.68;70.64;99234.91;529595;1092;102565;-63
2021/07/03 08:57:53;;;;;;;;;;;;;;;19.05;71.13;99231.10;530208;1092;102217;-62
2021/07/03 09:08:02;;;;;;;;;;;;;;;18.94;70.82;99242.83;530195;1092;102718;-61
2021/07/03 09:18:07;;;;;;;;;;;;;;;19.18;70.71;99227.95;529506;1092;102686;-62
2021/07/03 09:28:13;;;;;;;;;;;;;;;19.50;70.59;99220.17;524029;1093;101966;-62
2021/07/03 09:38:18;;;;;;;;;;;;;;;20.43;68.98;99215.41;530235;1092;102224;-62
2021/07/03 09:48:23;;;;;;;;;;;;;;;21.59;66.59;99212.14;529516;1092;102366;-61
2021/07/03 09:58:28;;;;;;;;;;;;;;;22.20;64.91;99203.23;530217;1092;102598;-61
2021/07/03 10:08:37;;;;;;;;;;;;;;;22.81;63.27;99199.51;530261;1092;102490;-62
2021/07/03 10:18:41;;;;;;;;;;;;;;;23.43;62.38;99193.78;529537;1092;102046;-62
2021/07/03 10:28:50;;;;;;;;;;;;;;;23.22;60.47;99192.73;530231;1092;102406;-63
2021/07/03 10:38:56;;;;;;;;;;;;;;;22.62;60.53;99189.38;529516;1093;103111;-63
2021/07/03 10:49:03;;;;;;;;;;;;;;;22.00;59.74;99184.23;530196;1092;102719;-63
2021/07/03 10:59:10;;;;;;;;;;;;;;;21.77;59.88;99184.28;530234;1092;102681;-61
2021/07/03 11:09:23;;;;;;;;;;;;;;;21.50;60.94;99195.33;529508;1092;102889;-62
2021/07/03 11:19:29;;;;;;;;;;;;;;;21.63;60.81;99199.23;530173;1092;102163;-62
2021/07/03 11:29:34;;;;;;;;;;;;;;;22.05;59.92;99202.41;530212;1092;103360;-62
2021/07/03 11:39:39;;;;;;;;;;;;;;;22.77;58.24;99194.72;529570;1092;102842;-62
2021/07/03 11:49:44;;;;;;;;;;;;;;;23.07;57.44;99189.30;530163;1093;102909;-63
2021/07/03 11:59:49;;;;;;;;;;;;;;;23.40;54.57;99175.42;529461;1092;102731;-63
2021/07/03 12:10:02;;;;;;;;;;;;;;;23.52;52.48;99173.04;530183;1092;104001;-62
2021/07/03 12:20:09;;;;;;;;;;;;;;;23.24;52.17;99174.62;530257;1092;102006;-62
2021/07/03 12:30:15;;;;;;;;;;;;;;;23.26;52.42;99171.76;529611;1092;103244;-62
2021/07/03 12:40:21;;;;;;;;;;;;;;;23.05;50.77;99160.02;530165;1093;102774;-61
2021/07/03 12:50:27;;;;;;;;;;;;;;;23.22;51.34;99144.52;530196;1092;102807;-61
2021/07/03 13:00:32;;;;;;;;;;;;;;;23.37;48.57;99139.13;529498;1092;102503;-63
2021/07/03 13:10:37;;;;;;;;;;;;;;;23.08;48.45;99148.11;530171;1092;103259;-62
2021/07/03 13:20:42;;;;;;;;;;;;;;;23.29;48.63;99144.61;530209;1092;102624;-62
2021/07/03 13:30:54;;;;;;;;;;;;;;;23.55;48.15;99137.84;530212;1092;103425;-62
2021/07/03 13:40:59;;;;;;;;;;;;;;;23.47;47.53;99127.26;530195;1092;103039;-62
2021/07/03 13:51:04;;;;;;;;;;;;;;;23.19;47.93;99117.30;529484;1091;102821;-62
2021/07/03 14:01:09;;;;;;;;;;;;;;;23.20;47.95;99127.83;530249;1093;102734;-62
2021/07/03 14:11:14;;;;;;;;;;;;;;;22.89;46.99;99126.29;530156;1092;102012;-61
2021/07/03 14:21:19;;;;;;;;;;;;;;;22.67;47.48;99138.83;529592;1092;102959;-61
2021/07/03 14:31:24;;;;;;;;;;;;;;;22.34;47.55;99137.40;530191;1092;102260;-62
2021/07/03 14:41:29;;;;;;;;;;;;;;;22.36;47.60;99142.54;530226;1092;102696;-62
2021/07/03 14:51:34;;;;;;;;;;;;;;;22.73;47.71;99132.70;529610;1092;103245;-62
2021/07/03 15:01:39;;;;;;;;;;;;;;;22.69;47.11;99133.30;530241;1093;103228;-62
2021/07/03 15:11:44;;;;;;;;;;;;;;;22.73;47.26;99130.03;529620;1093;103195;-63
2021/07/03 15:21:48;;;;;;;;;;;;;;;22.60;46.82;99132.56;530158;1092;102017;-62
2021/07/03 15:31:53;;;;;;;;;;;;;;;22.77;46.10;99125.13;530197;1092;102953;-62
2021/07/03 15:41:59;;;;;;;;;;;;;;;22.97;46.08;99130.72;529532;1092;102896;-63
2021/07/03 15:52:04;;;;;;;;;;;;;;;23.21;46.30;99121.45;530221;1092;102815;-62
2021/07/03 16:02:08;;;;;;;;;;;;;;;22.89;47.42;99125.48;530134;1091;102122;-62
2021/07/03 16:12:13;;;;;;;;;;;;;;;23.14;47.47;99119.73;529523;1092;102737;-63
2021/07/03 16:22:19;;;;;;;;;;;;;;;23.02;46.71;99138.15;530198;1092;103924;-62
2021/07/03 16:32:24;;;;;;;;;;;;;;;23.11;46.85;99122.81;530215;1093;102021;-62
2021/07/03 16:42:30;;;;;;;;;;;;;;;22.98;46.62;99124.34;527392;1092;102759;-62
2021/07/03 16:52:35;;;;;;;;;;;;;;;22.63;47.10;99122.32;530235;1092;102133;-62
2021/07/03 17:02:41;;;;;;;;;;;;;;;22.88;47.03;99119.28;530162;1092;103561;-62
2021/07/03 17:12:46;;;;;;;;;;;;;;;22.93;48.31;99126.74;530220;1093;103793;-62
2021/07/03 17:22:51;;;;;;;;;;;;;;;22.77;47.88;99125.98;531190;1093;102914;-61
2021/07/03 17:32:56;;;;;;;;;;;;;;;22.52;49.20;99138.86;530568;1092;102997;-62
2021/07/03 17:43:01;;;;;;;;;;;;;;;22.01;50.66;99142.28;531277;1092;102467;-63
2021/07/03 17:53:06;;;;;;;;;;;;;;;21.82;52.15;99155.19;530994;1093;102015;-62
2021/07/03 18:03:11;;;;;;;;;;;;;;;21.32;53.21;99162.78;529591;1093;101755;-63
2021/07/03 18:13:16;;;;;;;;;;;;;;;20.87;54.15;99166.08;531208;1092;103866;-62
2021/07/03 18:23:21;;;;;;;;;;;;;;;20.48;55.07;99161.56;531261;1092;102590;-63
2021/07/03 18:33:25;;;;;;;;;;;;;;;20.20;56.24;99152.20;530582;1092;103228;-63
2021/07/03 18:43:30;;;;;;;;;;;;;;;19.89;56.57;99158.23;531313;1093;101824;-62
2021/07/03 18:53:36;;;;;;;;;;;;;;;19.62;57.63;99162.09;531272;1093;102630;-62
2021/07/03 19:03:43;;;;;;;;;;;;;;;19.36;58.15;99163.93;530658;1092;102379;-63
2021/07/03 19:13:47;;;;;;;;;;;;;;;19.10;58.73;99166.73;531261;1092;101980;-63
2021/07/03 19:23:54;;;;;;;;;;;;;;;18.85;59.10;99182.61;530619;1092;102634;-63
2021/07/03 19:34:00;;;;;;;;;;;;;;;18.61;59.44;99181.55;531196;1093;102754;-63
2021/07/03 19:44:05;;;;;;;;;;;;;;;18.34;60.03;99170.97;530613;1092;102215;-61
2021/07/03 19:54:11;;;;;;;;;;;;;;;18.07;61.24;99179.98;530566;1093;101912;-63
2021/07/03 20:04:15;;;;;;;;;;;;;;;17.91;61.09;99175.38;531276;1092;101722;-63
2021/07/03 20:14:21;;;;;;;;;;;;;;;17.81;61.31;99159.52;531289;1092;102883;-62
2021/07/03 20:24:25;;;;;;;;;;;;;;;17.63;61.80;99156.91;530568;1092;102540;-62
2021/07/03 20:34:35;;;;;;;;;;;;;;;17.42;62.17;99158.08;531314;1093;103022;-62
2021/07/03 20:44:40;;;;;;;;;;;;;;;17.25;62.91;99170.37;530207;1092;102460;-62
2021/07/03 20:54:45;;;;;;;;;;;;;;;17.10;63.57;99178.05;530197;1092;102258;-61
2021/07/03 21:04:50;;;;;;;;;;;;;;;16.89;64.28;99192.38;531034;1092;103280;-63
2021/07/03 21:14:55;;;;;;;;;;;;;;;16.71;65.13;99184.40;529510;1092;103063;-62
2021/07/03 21:25:00;;;;;;;;;;;;;;;16.63;65.68;99187.80;530207;1093;102071;-62
2021/07/03 21:35:06;;;;;;;;;;;;;;;16.52;66.22;99193.28;530396;1093;102981;-62
2021/07/03 21:45:11;;;;;;;;;;;;;;;16.29;67.15;99201.61;529519;1093;102604;-63
2021/07/03 21:55:16;;;;;;;;;;;;;;;16.21;67.67;99197.01;531359;1093;154963;-62
2021/07/03 22:05:21;;;;;;;;;;;;;;;16.08;68.15;99197.34;531206;1092;102271;-63
2021/07/03 22:15:26;;;;;;;;;;;;;;;15.90;68.55;99186.66;530615;1092;102813;-61
2021/07/03 22:25:31;;;;;;;;;;;;;;;15.78;69.14;99193.88;531227;1093;102472;-62
2021/07/03 22:35:36;;;;;;;;;;;;;;;15.74;69.50;99191.66;531197;1092;102655;-61
2021/07/03 22:45:43;;;;;;;;;;;;;;;15.63;69.58;99182.89;529564;1092;103512;-62
2021/07/03 22:55:48;;;;;;;;;;;;;;;15.49;69.97;99184.18;531274;1092;102276;-62
2021/07/03 23:05:54;;;;;;;;;;;;;;;15.34;70.37;99170.53;530351;1092;103609;-61
2021/07/03 23:15:59;;;;;;;;;;;;;;;15.24;70.66;99167.91;531235;1092;102538;-63
2021/07/03 23:26:05;;;;;;;;;;;;;;;15.16;71.07;99167.75;530267;1092;102780;-62
2021/07/03 23:36:10;;;;;;;;;;;;;;;15.17;71.37;99168.57;530665;1092;101952;-62
2021/07/03 23:46:15;;;;;;;;;;;;;;;15.13;71.28;99168.03;531347;1092;103527;-63
2021/07/03 23:56:20;;;;;;;;;;;;;;;15.17;71.47;99169.42;531277;1092;102894;-62
